KEEN Airport Information

Runway Information
Runway 02 Length 6201 ft width 100 ft
Elevation 488 ft Threshold 0 ft Heading 3
Runway 20 Length 6201 ft Width 100 ft
Elevation 482 ft Threshold 0 ft Heading 183
Runway 14 Length 4001 ft width 150 ft
Elevation 472 ft Threshold 0 ft Heading 127
Runway 32 Length 4001 ft Width 150 ft
Elevation 478 ft Threshold 1100 ft Heading 307
Airport Frequencies
Type AWOS Name AWOS 3 Frequency 119.025 MHZ
Type CNTR Name BOSTON CNT Frequency 123.75 MHZ
Type RDO Name BANGOR RDO Frequency 109.4 MHZ
Type UNIC Name CTAF/UNICO Frequency 123 MHZ
Airport Navaids
Type VORTAC Name Keene Frequency 109400 KHZ
Airport Weather Information & NOTAM
ADDS - METARS form results

(2016 UTC 20 October 2021)
Data provider http://aviationweather.gov/metar/data/
 
METAR text: KEEN 201956Z AUTO 30006KT 10SM CLR 22/10 A2992 RMK AO2 SLP135 T02170100 $
Conditions at: KEEN (KEENE/DILLANT , NH, US) observed 1956 UTC 20 October 2021
Temperature: 21.7°C (71°F)
Dewpoint: 10.0°C (50°F) [RH = 47%]
Pressure (altimeter): 29.92 inches Hg (1013.3 mb)
[Sea-level pressure: 1013.5 mb]
Winds: from the WNW (300 degrees) at 7 MPH (6 knots; 3.1 m/s)
Visibility: 10 or more miles (16+ km)
Ceiling: at least 12,000 feet AGL
Clouds: sky clear below 12,000 feet AGL
Weather:
SOME DATA ABOVE MAY BE INACCURATE!!!
"$" is an indication the sensor requires maintenance